createdAt,value
2023-01-25T00:00:51.268Z,25.58
2023-01-25T00:03:18.187Z,24.70
2023-01-25T00:05:46.158Z,24.65
2023-01-25T00:08:13.030Z,26.67
2023-01-25T00:10:39.902Z,26.70
2023-01-25T00:13:06.764Z,25.98
2023-01-25T00:15:33.760Z,23.10
2023-01-25T00:18:00.734Z,23.95
2023-01-25T00:20:27.696Z,24.35
2023-01-25T00:22:54.504Z,24.60
2023-01-25T00:25:21.365Z,25.63
2023-01-25T00:27:48.147Z,25.77
2023-01-25T00:30:16.957Z,25.63
2023-01-25T00:33:03.146Z,26.65
2023-01-25T00:35:34.579Z,26.23
2023-01-25T00:38:16.256Z,25.80
2023-01-25T00:40:45.334Z,24.23
2023-01-25T00:43:12.153Z,26.40
2023-01-25T00:45:39.077Z,25.75
2023-01-25T00:48:06.408Z,27.25
2023-01-25T00:50:33.248Z,26.35
2023-01-25T00:53:00.679Z,25.20
2023-01-25T00:55:28.057Z,27.52
2023-01-25T00:57:54.967Z,26.23
2023-01-25T01:00:21.942Z,26.90
2023-01-25T01:02:48.824Z,26.23
2023-01-25T01:05:15.960Z,27.17
2023-01-25T01:07:43.834Z,25.88
2023-01-25T01:10:12.540Z,25.50
2023-01-25T01:12:39.326Z,27.08
2023-01-25T01:15:08.401Z,26.83
2023-01-25T01:17:35.733Z,24.63
2023-01-25T01:20:02.637Z,24.67
2023-01-25T01:22:29.678Z,26.45
2023-01-25T01:24:56.563Z,25.33
2023-01-25T01:27:23.428Z,26.65
2023-01-25T01:29:50.995Z,24.97
2023-01-25T01:32:19.273Z,26.10
2023-01-25T01:34:46.309Z,26.05
2023-01-25T01:37:13.161Z,26.10
2023-01-25T01:39:40.858Z,25.67
2023-01-25T01:42:08.132Z,26.47
2023-01-25T01:44:48.466Z,26.65
2023-01-25T01:47:41.996Z,25.48
2023-01-25T01:50:19.561Z,25.27
2023-01-25T01:52:47.030Z,25.30
2023-01-25T01:55:18.217Z,25.03
2023-01-25T01:57:51.477Z,24.55
2023-01-25T02:00:25.593Z,25.48
2023-01-25T02:02:57.261Z,27.27
2023-01-25T02:05:56.084Z,26.77
2023-01-25T02:08:24.955Z,25.03
2023-01-25T02:10:51.832Z,26.83
2023-01-25T02:13:19.984Z,27.27
2023-01-25T02:15:53.673Z,27.70
2023-01-25T02:18:20.943Z,26.40
2023-01-25T02:20:50.874Z,27.30
2023-01-25T02:23:37.513Z,26.88
2023-01-25T02:26:06.944Z,26.52
2023-01-25T02:28:43.826Z,25.85
2023-01-25T02:31:10.813Z,28.10
2023-01-25T02:33:37.784Z,28.40
2023-01-25T02:36:07.516Z,25.42
2023-01-25T02:38:58.769Z,27.30
2023-01-25T02:41:35.909Z,25.58
2023-01-25T02:44:06.442Z,27.25
2023-01-25T02:46:36.435Z,27.30
2023-01-25T02:49:05.232Z,27.90
2023-01-25T02:51:34.802Z,28.42
2023-01-25T02:54:03.251Z,27.00
2023-01-25T02:56:30.118Z,26.05
2023-01-25T02:58:57.626Z,27.27
2023-01-25T03:01:25.176Z,26.83
2023-01-25T03:03:52.136Z,29.48
2023-01-25T03:06:19.730Z,29.77
2023-01-25T03:08:47.458Z,30.70
2023-01-25T03:11:14.932Z,27.97
2023-01-25T03:13:42.970Z,30.50
2023-01-25T03:16:12.385Z,29.58
2023-01-25T03:18:41.987Z,29.92
2023-01-25T03:21:14.970Z,28.48
2023-01-25T03:23:43.575Z,29.57
2023-01-25T03:26:18.434Z,30.38
2023-01-25T03:29:01.202Z,30.98
2023-01-25T03:31:28.801Z,28.50
2023-01-25T03:33:56.794Z,30.35
2023-01-25T03:36:27.774Z,31.00
2023-01-25T03:38:54.825Z,30.40
2023-01-25T03:41:25.049Z,30.80
2023-01-25T03:43:52.393Z,29.60
2023-01-25T03:46:19.385Z,30.27
2023-01-25T03:48:47.023Z,29.63
2023-01-25T03:51:13.880Z,31.13
2023-01-25T03:53:41.283Z,31.23
2023-01-25T03:56:20.425Z,29.58
2023-01-25T03:59:16.424Z,29.30
2023-01-25T04:01:45.487Z,30.63
2023-01-25T04:04:12.613Z,31.33
2023-01-25T04:06:41.966Z,30.33
2023-01-25T04:09:08.944Z,29.73
2023-01-25T04:11:41.943Z,32.25
2023-01-25T04:14:11.173Z,32.17
2023-01-25T04:16:56.585Z,31.52
2023-01-25T04:19:26.370Z,31.38
2023-01-25T04:21:57.403Z,31.55
2023-01-25T04:24:28.855Z,29.70
2023-01-25T04:26:55.746Z,31.73
2023-01-25T04:29:31.663Z,30.70
2023-01-25T04:32:06.771Z,33.15
2023-01-25T04:34:33.711Z,30.02
2023-01-25T04:37:00.903Z,31.20
2023-01-25T04:39:32.034Z,31.27
2023-01-25T04:41:58.912Z,30.10
2023-01-25T04:44:25.785Z,31.05
2023-01-25T04:46:53.061Z,30.23
2023-01-25T04:49:20.118Z,32.35
2023-01-25T04:51:47.088Z,30.83
2023-01-25T04:54:14.391Z,29.17
2023-01-25T04:56:41.445Z,33.95
2023-01-25T04:59:08.252Z,29.25
2023-01-25T05:01:35.487Z,31.00
2023-01-25T05:04:05.870Z,31.27
2023-01-25T05:06:38.208Z,30.27
2023-01-25T05:09:05.782Z,30.70
2023-01-25T05:11:34.639Z,31.92
2023-01-25T05:14:06.402Z,32.15
2023-01-25T05:16:34.355Z,30.97
2023-01-25T05:19:01.964Z,29.95
2023-01-25T05:22:11.578Z,30.35
2023-01-25T05:24:45.318Z,28.50
2023-01-25T05:27:17.138Z,28.02
2023-01-25T05:29:57.089Z,29.33
2023-01-25T05:32:32.293Z,29.23
2023-01-25T05:35:00.833Z,30.73
2023-01-25T05:37:28.148Z,29.55
2023-01-25T05:40:01.337Z,30.33
2023-01-25T05:42:29.368Z,30.70
2023-01-25T05:44:56.361Z,29.08
2023-01-25T05:47:24.111Z,32.28
2023-01-25T05:49:50.974Z,32.25
2023-01-25T05:52:26.985Z,33.53
2023-01-25T05:54:53.955Z,32.90
2023-01-25T05:57:21.071Z,36.83
2023-01-25T05:59:47.967Z,36.95
2023-01-25T06:02:20.673Z,35.42
2023-01-25T06:04:48.727Z,36.60
2023-01-25T06:07:15.604Z,35.40
2023-01-25T06:09:42.717Z,37.10
2023-01-25T06:12:10.778Z,35.65
2023-01-25T06:14:37.646Z,33.83
2023-01-25T06:17:06.573Z,33.97
2023-01-25T06:20:06.965Z,33.93
2023-01-25T06:22:37.123Z,33.75
2023-01-25T06:25:04.379Z,34.20
2023-01-25T06:27:38.738Z,34.05
2023-01-25T06:30:10.580Z,30.70
2023-01-25T06:32:41.321Z,32.80
2023-01-25T06:35:09.515Z,32.70
2023-01-25T06:37:36.637Z,28.95
2023-01-25T06:40:03.952Z,32.72
2023-01-25T06:42:30.758Z,27.63
2023-01-25T06:44:58.220Z,30.20
2023-01-25T06:47:25.162Z,29.15
2023-01-25T06:49:52.143Z,27.55
2023-01-25T06:52:19.070Z,28.23
2023-01-25T06:54:46.034Z,30.35
2023-01-25T06:57:13.920Z,31.17
2023-01-25T06:59:40.798Z,30.42
2023-01-25T07:02:07.722Z,30.60
2023-01-25T07:04:34.969Z,30.65
2023-01-25T07:07:01.835Z,31.20
2023-01-25T07:09:28.865Z,30.63
2023-01-25T07:11:55.759Z,29.02
2023-01-25T07:14:22.668Z,29.42
2023-01-25T07:16:49.787Z,28.65
2023-01-25T07:19:17.982Z,29.60
2023-01-25T07:21:45.428Z,30.37
2023-01-25T07:24:15.570Z,27.05
2023-01-25T07:26:42.908Z,30.95
2023-01-25T07:29:14.149Z,29.80
2023-01-25T07:31:41.968Z,30.55
2023-01-25T07:34:12.237Z,31.03
2023-01-25T07:36:40.648Z,28.70
2023-01-25T07:39:11.675Z,30.85
2023-01-25T07:41:40.567Z,28.65
2023-01-25T07:44:12.147Z,31.80
2023-01-25T07:46:44.014Z,28.77
2023-01-25T07:49:10.933Z,29.17
2023-01-25T07:51:37.870Z,29.80
2023-01-25T07:54:05.345Z,30.92
2023-01-25T07:56:34.865Z,28.42
2023-01-25T07:59:05.334Z,28.77
2023-01-25T08:01:36.662Z,29.67
2023-01-25T08:04:04.779Z,29.23
2023-01-25T08:06:38.815Z,28.63
2023-01-25T08:09:12.753Z,30.40
2023-01-25T08:11:39.781Z,30.03
2023-01-25T08:14:06.752Z,31.02
2023-01-25T08:16:33.727Z,29.77
2023-01-25T08:19:03.186Z,30.90
2023-01-25T08:21:32.979Z,30.30
2023-01-25T08:24:02.462Z,29.47
2023-01-25T08:26:29.688Z,29.23
2023-01-25T08:29:00.836Z,30.60
2023-01-25T08:31:59.777Z,30.08
2023-01-25T08:34:26.776Z,26.23
2023-01-25T08:37:49.083Z,27.80
2023-01-25T08:40:38.348Z,26.88
2023-01-25T08:43:49.697Z,31.50
2023-01-25T08:46:17.299Z,29.75
2023-01-25T08:49:04.370Z,31.10
2023-01-25T08:52:14.658Z,29.40
2023-01-25T08:54:44.454Z,30.80
2023-01-25T08:57:11.441Z,28.20
2023-01-25T08:59:44.710Z,29.83
2023-01-25T09:02:13.064Z,32.00
2023-01-25T09:04:39.956Z,27.10
2023-01-25T09:07:07.794Z,29.27
2023-01-25T09:10:40.658Z,33.75
2023-01-25T09:14:02.608Z,30.60
2023-01-25T09:17:04.872Z,27.90
2023-01-25T09:19:32.000Z,28.33
2023-01-25T09:21:59.047Z,26.60
2023-01-25T09:25:03.937Z,29.90
2023-01-25T09:27:56.135Z,30.17
2023-01-25T09:30:33.985Z,31.95
2023-01-25T09:38:00.057Z,29.98
2023-01-25T09:40:33.966Z,31.05
2023-01-25T09:43:32.768Z,30.13
2023-01-25T09:46:01.660Z,28.17
2023-01-25T09:48:45.254Z,27.40
2023-01-25T09:52:02.285Z,28.85
2023-01-25T09:55:56.687Z,28.63
2023-01-25T10:07:01.049Z,28.53
2023-01-25T10:13:56.502Z,28.73
2023-01-25T10:16:28.211Z,27.20
2023-01-25T10:18:58.687Z,27.85
2023-01-25T10:22:01.712Z,28.93
2023-01-25T10:25:00.473Z,28.52
2023-01-25T10:28:32.858Z,29.65
2023-01-25T10:31:33.850Z,28.98
2023-01-25T10:34:02.211Z,29.30
2023-01-25T10:36:31.876Z,28.13
2023-01-25T10:39:01.161Z,31.17
2023-01-25T10:41:42.973Z,31.75
2023-01-25T10:44:22.382Z,31.15
2023-01-25T10:46:57.771Z,31.27
2023-01-25T10:49:32.509Z,28.27
2023-01-25T10:52:16.132Z,29.35
2023-01-25T10:54:43.818Z,31.73
2023-01-25T10:57:17.130Z,31.52
2023-01-25T10:59:48.184Z,31.25
2023-01-25T11:03:00.461Z,29.07
2023-01-25T11:05:38.562Z,29.23
2023-01-25T11:08:36.681Z,32.70
2023-01-25T11:11:31.371Z,28.42
2023-01-25T11:13:58.438Z,34.08
2023-01-25T11:16:38.574Z,31.60
2023-01-25T11:19:35.741Z,31.75
2023-01-25T11:22:06.658Z,34.85
2023-01-25T11:24:36.081Z,33.83
2023-01-25T11:27:16.722Z,33.95
2023-01-25T11:29:47.035Z,32.13
2023-01-25T11:32:25.032Z,31.50
2023-01-25T11:34:52.109Z,29.80
2023-01-25T11:37:26.386Z,29.77
2023-01-25T11:40:13.210Z,32.53
2023-01-25T11:43:05.487Z,28.83
2023-01-25T11:45:37.806Z,30.60
2023-01-25T11:48:26.346Z,30.65
2023-01-25T11:51:04.069Z,30.90
2023-01-25T11:53:49.661Z,33.20
2023-01-25T11:56:23.298Z,32.73
2023-01-25T11:59:15.006Z,32.83
2023-01-25T12:02:31.705Z,29.67
2023-01-25T12:05:36.715Z,31.33
2023-01-25T12:08:22.479Z,30.60
2023-01-25T12:11:13.843Z,32.90
2023-01-25T12:13:55.679Z,28.88
2023-01-25T12:16:50.233Z,31.05
2023-01-25T12:19:25.887Z,29.42
2023-01-25T12:22:17.145Z,33.13
2023-01-25T12:25:09.915Z,32.30
2023-01-25T12:28:06.511Z,32.42
2023-01-25T12:31:06.211Z,33.33
2023-01-25T12:33:42.351Z,33.45
2023-01-25T12:36:21.767Z,32.65
2023-01-25T12:39:27.559Z,26.47
2023-01-25T12:41:58.794Z,27.15
2023-01-25T12:44:42.461Z,33.08
2023-01-25T12:47:27.760Z,31.23
2023-01-25T12:50:07.505Z,32.28
2023-01-25T12:52:42.470Z,31.70
2023-01-25T12:55:17.578Z,31.98
2023-01-25T12:57:57.244Z,33.85
2023-01-25T13:00:35.998Z,31.63
2023-01-25T13:03:41.017Z,32.20
2023-01-25T13:06:19.918Z,32.47
2023-01-25T13:09:16.820Z,31.98
2023-01-25T13:11:46.484Z,30.80
2023-01-25T13:14:16.554Z,32.10
2023-01-25T13:16:44.917Z,26.55
2023-01-25T13:19:38.293Z,30.03
2023-01-25T13:22:05.567Z,27.42
2023-01-25T13:24:35.397Z,30.98
2023-01-25T13:27:23.240Z,31.42
2023-01-25T13:30:15.297Z,26.13
2023-01-25T13:32:44.875Z,19.97
2023-01-25T13:35:33.160Z,30.95
2023-01-25T13:38:17.319Z,33.53
2023-01-25T13:40:44.377Z,33.60
2023-01-25T13:43:19.868Z,31.63
2023-01-25T13:45:50.583Z,34.53
2023-01-25T13:48:26.138Z,29.27
2023-01-25T13:51:00.842Z,32.38
2023-01-25T13:53:33.118Z,30.98
2023-01-25T13:56:01.772Z,28.77
2023-01-25T13:58:46.081Z,31.27
2023-01-25T14:01:18.989Z,27.17
2023-01-25T14:03:59.473Z,31.50
2023-01-25T14:06:28.684Z,30.20
2023-01-25T14:08:59.728Z,29.92
2023-01-25T14:11:31.612Z,30.73
2023-01-25T14:14:18.825Z,24.75
2023-01-25T14:16:49.622Z,28.95
2023-01-25T14:19:30.917Z,27.92
2023-01-25T14:22:21.787Z,27.33
2023-01-25T14:25:07.725Z,22.80
2023-01-25T14:27:43.044Z,29.60
2023-01-25T14:30:36.508Z,31.00
2023-01-25T14:33:17.384Z,26.40
2023-01-25T14:36:11.585Z,29.48
2023-01-25T14:38:40.902Z,30.03
2023-01-25T14:41:20.490Z,31.75
2023-01-25T14:43:56.275Z,33.80
2023-01-25T14:46:37.165Z,30.45
2023-01-25T14:49:11.875Z,27.98
2023-01-25T14:51:48.561Z,32.37
2023-01-25T14:54:21.357Z,33.28
2023-01-25T14:56:54.495Z,29.90
2023-01-25T14:59:41.732Z,30.02
2023-01-25T15:02:29.356Z,31.02
2023-01-25T15:05:24.108Z,31.53
2023-01-25T15:07:53.029Z,33.13
2023-01-25T15:10:27.944Z,25.67
2023-01-25T15:13:12.716Z,23.60
2023-01-25T15:16:03.429Z,26.70
2023-01-25T15:18:52.424Z,26.47
2023-01-25T15:21:27.148Z,27.20
2023-01-25T15:23:56.057Z,17.42
2023-01-25T15:26:22.942Z,29.45
2023-01-25T15:28:51.639Z,23.75
2023-01-25T15:31:22.430Z,22.77
2023-01-25T15:33:49.664Z,23.30
2023-01-25T15:37:00.452Z,31.88
2023-01-25T15:39:27.524Z,25.48
2023-01-25T15:41:54.518Z,23.55
2023-01-25T15:44:21.452Z,21.63
2023-01-25T15:46:52.172Z,27.58
2023-01-25T15:49:26.634Z,28.20
2023-01-25T15:51:54.516Z,25.17
2023-01-25T15:54:21.784Z,23.15
2023-01-25T15:56:54.663Z,26.63
2023-01-25T15:59:21.582Z,26.42
2023-01-25T16:01:52.330Z,16.77
2023-01-25T16:04:19.199Z,23.38
2023-01-25T16:06:54.095Z,27.65
2023-01-25T16:09:27.113Z,29.87
2023-01-25T16:11:58.420Z,31.20
2023-01-25T16:14:30.321Z,33.13
2023-01-25T16:17:00.419Z,32.38
2023-01-25T16:19:27.370Z,29.92
2023-01-25T16:21:54.569Z,31.97
2023-01-25T16:24:21.749Z,29.33
2023-01-25T16:26:55.360Z,37.22
2023-01-25T16:29:25.475Z,31.40
2023-01-25T16:31:53.629Z,34.80
2023-01-25T16:34:21.113Z,32.53
2023-01-25T16:36:52.906Z,42.55
2023-01-25T16:39:25.715Z,37.95
2023-01-25T16:44:55.077Z,37.78
2023-01-25T16:47:21.952Z,34.53
2023-01-25T16:49:48.963Z,35.60
2023-01-25T16:52:16.291Z,35.10
2023-01-25T16:54:43.073Z,36.72
2023-01-25T16:57:20.628Z,36.15
2023-01-25T16:59:47.853Z,38.13
2023-01-25T17:02:14.884Z,38.58
2023-01-25T17:04:41.727Z,39.00
2023-01-25T17:07:10.484Z,37.40
2023-01-25T17:09:38.344Z,38.00
2023-01-25T17:12:08.995Z,38.53
2023-01-25T17:14:36.102Z,38.10
2023-01-25T17:17:05.991Z,40.67
2023-01-25T17:19:32.874Z,37.03
2023-01-25T17:21:59.793Z,36.33
2023-01-25T17:24:27.027Z,38.43
2023-01-25T17:26:57.863Z,37.55
2023-01-25T17:29:24.761Z,40.60
2023-01-25T17:31:51.856Z,39.15
2023-01-25T17:34:19.870Z,40.33
2023-01-25T17:36:54.277Z,40.10
2023-01-25T17:39:29.412Z,38.60
2023-01-25T17:41:56.423Z,40.20
2023-01-25T17:44:24.461Z,38.22
2023-01-25T17:46:52.496Z,40.08
2023-01-25T17:49:22.473Z,42.23
2023-01-25T17:51:49.404Z,39.92
2023-01-25T17:54:16.306Z,38.10
2023-01-25T17:56:43.251Z,38.75
2023-01-25T17:59:11.530Z,40.65
2023-01-25T18:01:39.448Z,40.13
2023-01-25T18:04:08.252Z,39.67
2023-01-25T18:06:35.575Z,40.63
2023-01-25T18:09:05.940Z,39.53
2023-01-25T18:11:35.567Z,41.75
2023-01-25T18:14:08.702Z,42.20
2023-01-25T18:16:38.787Z,40.65
2023-01-25T18:19:06.139Z,42.65
2023-01-25T18:21:36.453Z,40.13
2023-01-25T18:24:35.399Z,42.53
2023-01-25T18:27:17.901Z,34.67
2023-01-25T18:29:52.770Z,37.33
2023-01-25T18:32:19.947Z,42.08
2023-01-25T18:34:48.088Z,42.97
2023-01-25T18:37:20.452Z,37.17
2023-01-25T18:39:49.155Z,39.50
2023-01-25T18:42:15.983Z,41.15
2023-01-25T18:44:45.426Z,41.38
2023-01-25T18:47:13.850Z,45.33
2023-01-25T18:49:41.597Z,40.72
2023-01-25T18:52:11.864Z,40.63
2023-01-25T18:54:39.131Z,43.85
2023-01-25T18:57:07.914Z,41.33
2023-01-25T18:59:34.768Z,40.17
2023-01-25T19:02:02.123Z,42.25
2023-01-25T19:04:29.266Z,44.07
2023-01-25T19:06:57.569Z,43.17
2023-01-25T19:09:25.478Z,45.38
2023-01-25T19:11:52.413Z,40.25
2023-01-25T19:14:19.256Z,45.22
2023-01-25T19:16:46.626Z,41.93
2023-01-25T19:19:13.502Z,42.95
2023-01-25T19:21:41.328Z,43.15
2023-01-25T19:24:12.121Z,44.00
2023-01-25T19:26:39.059Z,41.78
2023-01-25T19:29:06.624Z,41.17
2023-01-25T19:31:34.275Z,43.78
2023-01-25T19:34:06.512Z,42.47
2023-01-25T19:36:38.942Z,39.85
2023-01-25T19:39:10.698Z,45.17
2023-01-25T19:41:39.038Z,43.83
2023-01-25T19:44:07.213Z,41.45
2023-01-25T19:46:36.354Z,40.88
2023-01-25T19:49:04.967Z,41.33
2023-01-25T19:51:34.043Z,42.83
2023-01-25T19:54:10.547Z,44.77
2023-01-25T19:56:40.745Z,45.03
2023-01-25T19:59:11.593Z,45.65
2023-01-25T20:01:42.019Z,45.72
2023-01-25T20:04:09.286Z,43.95
2023-01-25T20:06:38.452Z,46.80
2023-01-25T20:09:05.891Z,48.15
2023-01-25T20:11:34.407Z,44.88
2023-01-25T20:14:04.110Z,43.40
2023-01-25T20:16:32.743Z,45.47
2023-01-25T20:18:59.990Z,44.20
2023-01-25T20:21:28.621Z,47.05
2023-01-25T20:24:00.301Z,45.78
2023-01-25T20:26:32.694Z,43.58
2023-01-25T20:29:00.786Z,45.33
2023-01-25T20:31:33.987Z,40.53
2023-01-25T20:34:04.067Z,42.47
2023-01-25T20:36:33.298Z,40.15
2023-01-25T20:39:00.728Z,41.42
2023-01-25T20:41:27.671Z,43.40
2023-01-25T20:44:10.082Z,43.40
2023-01-25T20:46:43.063Z,41.47
2023-01-25T20:49:15.036Z,40.30
2023-01-25T20:51:42.906Z,43.45
2023-01-25T20:54:10.465Z,44.83
2023-01-25T20:56:38.372Z,42.47
2023-01-25T20:59:06.208Z,43.10
2023-01-25T21:01:36.723Z,43.22
2023-01-25T21:04:05.809Z,44.72
2023-01-25T21:06:35.002Z,44.47
2023-01-25T21:09:02.392Z,39.97
2023-01-25T21:11:29.452Z,40.10
2023-01-25T21:13:56.988Z,41.08
2023-01-25T21:16:24.151Z,40.97
2023-01-25T21:18:54.664Z,45.33
2023-01-25T21:21:30.021Z,42.03
2023-01-25T21:23:59.793Z,48.85
2023-01-25T21:26:31.631Z,46.70
2023-01-25T21:29:00.585Z,48.40
2023-01-25T21:31:29.551Z,49.88
2023-01-25T21:33:56.668Z,50.27
2023-01-25T21:36:24.019Z,52.95
2023-01-25T21:38:52.808Z,52.13
2023-01-25T21:41:20.712Z,52.80
2023-01-25T21:44:06.959Z,53.33
2023-01-25T21:46:34.538Z,53.93
2023-01-25T21:49:21.975Z,55.90
2023-01-25T21:51:51.039Z,54.58
2023-01-25T21:54:25.936Z,52.47
2023-01-25T21:56:55.045Z,54.60
2023-01-25T21:59:22.695Z,54.23
2023-01-25T22:01:50.893Z,55.40
2023-01-25T22:04:19.246Z,51.97
2023-01-25T22:06:46.166Z,52.53
2023-01-25T22:09:13.873Z,54.78
2023-01-25T22:11:41.069Z,54.27
2023-01-25T22:14:08.144Z,54.38
2023-01-25T22:16:35.134Z,48.50
2023-01-25T22:19:02.140Z,52.35
2023-01-25T22:21:32.624Z,55.00
2023-01-25T22:24:01.876Z,50.73
2023-01-25T22:27:13.235Z,48.75
2023-01-25T22:29:40.003Z,51.30
2023-01-25T22:32:07.087Z,49.40
2023-01-25T22:34:34.782Z,50.50
2023-01-25T22:37:01.577Z,48.67
2023-01-25T22:39:28.415Z,51.05
2023-01-25T22:41:56.535Z,51.72
2023-01-25T22:44:23.548Z,46.65
2023-01-25T22:46:50.683Z,52.10
2023-01-25T22:49:20.725Z,50.20
2023-01-25T22:51:47.563Z,50.97
2023-01-25T22:54:14.371Z,48.00
2023-01-25T22:56:41.413Z,50.28
2023-01-25T22:59:12.031Z,46.90
2023-01-25T23:01:38.959Z,43.90
2023-01-25T23:04:05.984Z,42.50
2023-01-25T23:06:36.461Z,45.28
2023-01-25T23:09:06.216Z,41.72
2023-01-25T23:11:36.966Z,47.40
2023-01-25T23:14:24.486Z,40.77
2023-01-25T23:16:51.464Z,26.00
2023-01-25T23:19:19.038Z,43.40
2023-01-25T23:21:45.879Z,40.45
2023-01-25T23:24:12.720Z,45.10
2023-01-25T23:26:40.852Z,44.83
2023-01-25T23:29:10.685Z,41.20
2023-01-25T23:31:37.813Z,43.15
2023-01-25T23:34:06.164Z,40.38
2023-01-25T23:36:35.996Z,41.80
2023-01-25T23:39:03.276Z,40.30
2023-01-25T23:41:30.754Z,37.75
2023-01-25T23:43:58.169Z,44.08
2023-01-25T23:46:25.845Z,42.22
2023-01-25T23:48:52.951Z,41.67
2023-01-25T23:51:20.812Z,40.97
2023-01-25T23:53:48.052Z,43.88
2023-01-25T23:56:18.112Z,40.92
2023-01-25T23:58:45.593Z,37.40
